sensor_id;sensor_type;location;lat;lon;timestamp;pressure;altitude;pressure_sealevel;temperature;humidity
75157;BME280;63736;50.076;8.198;2023-04-24T00:00:15;98308.00;;;10.39;100.00
75157;BME280;63736;50.076;8.198;2023-04-24T00:02:41;98297.19;;;10.40;100.00
75157;BME280;63736;50.076;8.198;2023-04-24T00:05:10;98299.00;;;10.40;100.00
75157;BME280;63736;50.076;8.198;2023-04-24T00:07:35;98302.53;;;10.40;100.00
75157;BME280;63736;50.076;8.198;2023-04-24T00:10:00;98301.81;;;10.38;100.00
75157;BME280;63736;50.076;8.198;2023-04-24T00:12:26;98300.16;;;10.37;100.00
75157;BME280;63736;50.076;8.198;2023-04-24T00:14:52;98300.16;;;10.37;100.00
75157;BME280;63736;50.076;8.198;2023-04-24T00:17:17;98298.16;;;10.39;100.00
75157;BME280;63736;50.076;8.198;2023-04-24T00:19:46;98291.50;;;10.44;100.00
75157;BME280;63736;50.076;8.198;2023-04-24T00:22:12;98284.69;;;10.49;100.00
75157;BME280;63736;50.076;8.198;2023-04-24T00:24:38;98288.56;;;10.55;100.00
75157;BME280;63736;50.076;8.198;2023-04-24T00:27:04;98287.09;;;10.61;100.00
75157;BME280;63736;50.076;8.198;2023-04-24T00:29:29;98278.63;;;10.65;100.00
75157;BME280;63736;50.076;8.198;2023-04-24T00:31:54;98279.97;;;10.69;100.00
75157;BME280;63736;50.076;8.198;2023-04-24T00:34:19;98279.63;;;10.72;100.00
75157;BME280;63736;50.076;8.198;2023-04-24T00:36:45;98284.66;;;10.76;100.00
75157;BME280;63736;50.076;8.198;2023-04-24T00:39:10;98281.66;;;10.79;100.00
75157;BME280;63736;50.076;8.198;2023-04-24T00:41:36;98282.34;;;10.81;100.00
75157;BME280;63736;50.076;8.198;2023-04-24T00:44:01;98274.34;;;10.81;100.00
75157;BME280;63736;50.076;8.198;2023-04-24T00:46:26;98278.81;;;10.80;100.00
75157;BME280;63736;50.076;8.198;2023-04-24T00:48:52;98273.19;;;10.83;100.00
75157;BME280;63736;50.076;8.198;2023-04-24T00:51:18;98263.31;;;10.84;100.00
75157;BME280;63736;50.076;8.198;2023-04-24T00:53:43;98258.16;;;10.82;100.00
75157;BME280;63736;50.076;8.198;2023-04-24T00:56:09;98255.63;;;10.81;100.00
75157;BME280;63736;50.076;8.198;2023-04-24T00:58:34;98257.44;;;10.80;100.00
75157;BME280;63736;50.076;8.198;2023-04-24T01:01:00;98255.63;;;10.81;100.00
75157;BME280;63736;50.076;8.198;2023-04-24T01:03:29;98251.94;;;10.82;100.00
75157;BME280;63736;50.076;8.198;2023-04-24T01:05:56;98253.63;;;10.83;100.00
75157;BME280;63736;50.076;8.198;2023-04-24T01:08:23;98252.81;;;10.82;100.00
75157;BME280;63736;50.076;8.198;2023-04-24T01:10:51;98250.78;;;10.84;100.00
75157;BME280;63736;50.076;8.198;2023-04-24T01:13:18;98254.16;;;10.86;100.00
75157;BME280;63736;50.076;8.198;2023-04-24T01:15:45;98249.63;;;10.87;100.00
75157;BME280;63736;50.076;8.198;2023-04-24T01:18:10;98251.13;;;10.89;100.00
75157;BME280;63736;50.076;8.198;2023-04-24T01:20:36;98249.97;;;10.92;100.00
75157;BME280;63736;50.076;8.198;2023-04-24T01:23:05;98249.81;;;10.94;100.00
75157;BME280;63736;50.076;8.198;2023-04-24T01:25:30;98247.00;;;10.95;100.00
75157;BME280;63736;50.076;8.198;2023-04-24T01:27:56;98252.16;;;10.97;100.00
75157;BME280;63736;50.076;8.198;2023-04-24T01:30:21;98250.50;;;10.96;100.00
75157;BME280;63736;50.076;8.198;2023-04-24T01:32:46;98253.16;;;10.96;100.00
75157;BME280;63736;50.076;8.198;2023-04-24T01:35:13;98250.66;;;10.94;100.00
75157;BME280;63736;50.076;8.198;2023-04-24T01:37:38;98254.31;;;10.93;100.00
75157;BME280;63736;50.076;8.198;2023-04-24T01:40:07;98254.31;;;10.93;100.00
75157;BME280;63736;50.076;8.198;2023-04-24T01:42:33;98259.84;;;10.91;100.00
75157;BME280;63736;50.076;8.198;2023-04-24T01:44:59;98256.31;;;10.91;100.00
75157;BME280;63736;50.076;8.198;2023-04-24T01:47:25;98259.84;;;10.91;100.00
75157;BME280;63736;50.076;8.198;2023-04-24T01:49:50;98274.19;;;10.90;100.00
75157;BME280;63736;50.076;8.198;2023-04-24T01:52:16;98280.53;;;10.89;100.00
75157;BME280;63736;50.076;8.198;2023-04-24T01:54:42;98259.81;;;10.83;100.00
75157;BME280;63736;50.076;8.198;2023-04-24T01:57:08;98257.97;;;10.76;100.00
75157;BME280;63736;50.076;8.198;2023-04-24T01:59:34;98268.41;;;10.69;100.00
75157;BME280;63736;50.076;8.198;2023-04-24T02:02:01;98268.41;;;10.61;100.00
75157;BME280;63736;50.076;8.198;2023-04-24T02:04:27;98264.19;;;10.50;100.00
75157;BME280;63736;50.076;8.198;2023-04-24T02:06:52;98261.09;;;10.36;100.00
75157;BME280;63736;50.076;8.198;2023-04-24T02:09:18;98264.38;;;10.30;100.00
75157;BME280;63736;50.076;8.198;2023-04-24T02:11:43;98264.19;;;10.23;100.00
75157;BME280;63736;50.076;8.198;2023-04-24T02:14:08;98276.16;;;10.19;100.00
75157;BME280;63736;50.076;8.198;2023-04-24T02:16:34;98274.63;;;10.17;100.00
75157;BME280;63736;50.076;8.198;2023-04-24T02:19:01;98278.97;;;10.18;100.00
75157;BME280;63736;50.076;8.198;2023-04-24T02:21:26;98286.81;;;10.19;100.00
75157;BME280;63736;50.076;8.198;2023-04-24T02:23:52;98278.53;;;10.22;100.00
75157;BME280;63736;50.076;8.198;2023-04-24T02:26:18;98278.19;;;10.25;100.00
75157;BME280;63736;50.076;8.198;2023-04-24T02:28:43;98279.06;;;10.26;100.00
75157;BME280;63736;50.076;8.198;2023-04-24T02:31:09;98285.22;;;10.27;100.00
75157;BME280;63736;50.076;8.198;2023-04-24T02:33:34;98289.56;;;10.28;100.00
75157;BME280;63736;50.076;8.198;2023-04-24T02:36:00;98271.03;;;10.26;100.00
75157;BME280;63736;50.076;8.198;2023-04-24T02:38:26;98286.03;;;10.27;100.00
75157;BME280;63736;50.076;8.198;2023-04-24T02:40:51;98284.22;;;10.28;100.00
75157;BME280;63736;50.076;8.198;2023-04-24T02:43:17;98286.88;;;10.28;100.00
75157;BME280;63736;50.076;8.198;2023-04-24T02:45:42;98288.41;;;10.30;100.00
75157;BME280;63736;50.076;8.198;2023-04-24T02:48:07;98282.06;;;10.31;100.00
75157;BME280;63736;50.076;8.198;2023-04-24T02:50:32;98281.22;;;10.31;100.00
75157;BME280;63736;50.076;8.198;2023-04-24T02:52:58;98282.91;;;10.32;100.00
75157;BME280;63736;50.076;8.198;2023-04-24T02:55:24;98290.22;;;10.30;100.00
75157;BME280;63736;50.076;8.198;2023-04-24T02:57:50;98283.06;;;10.30;100.00
75157;BME280;63736;50.076;8.198;2023-04-24T03:00:15;98284.06;;;10.29;100.00
75157;BME280;63736;50.076;8.198;2023-04-24T03:02:41;98287.72;;;10.28;100.00
75157;BME280;63736;50.076;8.198;2023-04-24T03:05:07;98293.06;;;10.28;100.00
75157;BME280;63736;50.076;8.198;2023-04-24T03:07:34;98289.72;;;10.26;100.00
75157;BME280;63736;50.076;8.198;2023-04-24T03:09:59;98298.88;;;10.23;100.00
75157;BME280;63736;50.076;8.198;2023-04-24T03:12:25;98296.34;;;10.22;100.00
75157;BME280;63736;50.076;8.198;2023-04-24T03:14:50;98287.69;;;10.20;100.00
75157;BME280;63736;50.076;8.198;2023-04-24T03:17:16;98289.50;;;10.19;100.00
75157;BME280;63736;50.076;8.198;2023-04-24T03:19:41;98290.34;;;10.20;100.00
75157;BME280;63736;50.076;8.198;2023-04-24T03:22:06;98300.16;;;10.19;100.00
75157;BME280;63736;50.076;8.198;2023-04-24T03:24:31;98297.38;;;10.21;100.00
75157;BME280;63736;50.076;8.198;2023-04-24T03:26:57;98308.88;;;10.21;100.00
75157;BME280;63736;50.076;8.198;2023-04-24T03:29:22;98312.34;;;10.22;100.00
75157;BME280;63736;50.076;8.198;2023-04-24T03:31:48;98311.69;;;10.20;100.00
75157;BME280;63736;50.076;8.198;2023-04-24T03:34:13;98326.84;;;10.19;100.00
75157;BME280;63736;50.076;8.198;2023-04-24T03:36:39;98326.47;;;10.14;100.00
75157;BME280;63736;50.076;8.198;2023-04-24T03:39:04;98321.91;;;10.06;100.00
75157;BME280;63736;50.076;8.198;2023-04-24T03:41:29;98331.56;;;9.99;100.00
75157;BME280;63736;50.076;8.198;2023-04-24T03:43:55;98332.66;;;9.88;100.00
75157;BME280;63736;50.076;8.198;2023-04-24T03:46:20;98331.19;;;9.76;100.00
75157;BME280;63736;50.076;8.198;2023-04-24T03:48:46;98336.75;;;9.65;100.00
75157;BME280;63736;50.076;8.198;2023-04-24T03:51:11;98331.66;;;9.53;100.00
75157;BME280;63736;50.076;8.198;2023-04-24T03:53:36;98335.69;;;9.39;100.00
75157;BME280;63736;50.076;8.198;2023-04-24T03:56:02;98342.91;;;9.29;100.00
75157;BME280;63736;50.076;8.198;2023-04-24T03:58:27;98344.78;;;9.19;100.00
75157;BME280;63736;50.076;8.198;2023-04-24T04:00:53;98344.16;;;9.07;100.00
75157;BME280;63736;50.076;8.198;2023-04-24T04:03:18;98341.53;;;8.97;100.00
75157;BME280;63736;50.076;8.198;2023-04-24T04:05:43;98348.72;;;8.87;100.00
75157;BME280;63736;50.076;8.198;2023-04-24T04:08:08;98347.94;;;8.76;100.00
75157;BME280;63736;50.076;8.198;2023-04-24T04:10:34;98353.84;;;8.70;100.00
75157;BME280;63736;50.076;8.198;2023-04-24T04:12:59;98348.13;;;8.65;100.00
75157;BME280;63736;50.076;8.198;2023-04-24T04:15:25;98358.22;;;8.62;100.00
75157;BME280;63736;50.076;8.198;2023-04-24T04:17:50;98355.97;;;8.57;100.00
75157;BME280;63736;50.076;8.198;2023-04-24T04:20:16;98351.09;;;8.52;100.00
75157;BME280;63736;50.076;8.198;2023-04-24T04:22:41;98351.53;;;8.48;100.00
75157;BME280;63736;50.076;8.198;2023-04-24T04:25:06;98361.31;;;8.37;100.00
75157;BME280;63736;50.076;8.198;2023-04-24T04:27:33;98361.06;;;8.31;100.00
75157;BME280;63736;50.076;8.198;2023-04-24T04:29:59;98366.84;;;8.26;100.00
75157;BME280;63736;50.076;8.198;2023-04-24T04:32:29;98375.06;;;8.23;100.00
75157;BME280;63736;50.076;8.198;2023-04-24T04:34:55;98373.53;;;8.20;100.00
75157;BME280;63736;50.076;8.198;2023-04-24T04:37:20;98380.84;;;8.18;100.00
75157;BME280;63736;50.076;8.198;2023-04-24T04:39:46;98388.53;;;8.21;100.00
75157;BME280;63736;50.076;8.198;2023-04-24T04:42:11;98389.91;;;8.25;100.00
75157;BME280;63736;50.076;8.198;2023-04-24T04:44:36;98385.88;;;8.31;100.00
75157;BME280;63736;50.076;8.198;2023-04-24T04:47:03;98376.59;;;8.35;100.00
75157;BME280;63736;50.076;8.198;2023-04-24T04:49:33;98378.00;;;8.39;100.00
75157;BME280;63736;50.076;8.198;2023-04-24T04:51:59;98378.69;;;8.41;100.00
75157;BME280;63736;50.076;8.198;2023-04-24T04:54:24;98383.03;;;8.42;100.00
75157;BME280;63736;50.076;8.198;2023-04-24T04:56:50;98387.50;;;8.42;100.00
75157;BME280;63736;50.076;8.198;2023-04-24T04:59:15;98399.13;;;8.41;100.00
75157;BME280;63736;50.076;8.198;2023-04-24T05:01:41;98401.13;;;8.39;100.00
75157;BME280;63736;50.076;8.198;2023-04-24T05:04:06;98403.63;;;8.40;100.00
75157;BME280;63736;50.076;8.198;2023-04-24T05:06:31;98405.03;;;8.44;100.00
75157;BME280;63736;50.076;8.198;2023-04-24T05:08:57;98407.56;;;8.56;100.00
75157;BME280;63736;50.076;8.198;2023-04-24T05:11:22;98412.34;;;8.90;100.00
75157;BME280;63736;50.076;8.198;2023-04-24T05:13:48;98407.28;;;9.52;100.00
75157;BME280;63736;50.076;8.198;2023-04-24T05:16:13;98408.19;;;10.33;100.00
75157;BME280;63736;50.076;8.198;2023-04-24T05:18:38;98406.16;;;11.40;100.00
75157;BME280;63736;50.076;8.198;2023-04-24T05:21:04;98397.09;;;12.67;100.00
75157;BME280;63736;50.076;8.198;2023-04-24T05:23:29;98413.22;;;13.86;100.00
75157;BME280;63736;50.076;8.198;2023-04-24T05:25:54;98410.22;;;14.50;91.81
75157;BME280;63736;50.076;8.198;2023-04-24T05:28:19;98414.31;;;14.84;86.71
75157;BME280;63736;50.076;8.198;2023-04-24T05:30:46;98417.75;;;15.08;79.98
75157;BME280;63736;50.076;8.198;2023-04-24T05:33:11;98422.28;;;14.78;75.76
75157;BME280;63736;50.076;8.198;2023-04-24T05:35:36;98430.72;;;14.28;76.98
75157;BME280;63736;50.076;8.198;2023-04-24T05:38:02;98439.13;;;13.79;79.68
75157;BME280;63736;50.076;8.198;2023-04-24T05:40:27;98439.63;;;13.74;81.71
75157;BME280;63736;50.076;8.198;2023-04-24T05:42:52;98450.31;;;13.82;77.88
75157;BME280;63736;50.076;8.198;2023-04-24T05:45:17;98458.13;;;14.24;74.70
75157;BME280;63736;50.076;8.198;2023-04-24T05:47:43;98462.53;;;15.01;71.72
75157;BME280;63736;50.076;8.198;2023-04-24T05:50:09;98453.88;;;15.65;66.25
75157;BME280;63736;50.076;8.198;2023-04-24T05:52:35;98461.44;;;16.07;64.31
75157;BME280;63736;50.076;8.198;2023-04-24T05:55:00;98459.50;;;16.00;63.10
75157;BME280;63736;50.076;8.198;2023-04-24T05:57:25;98472.34;;;15.98;63.16
75157;BME280;63736;50.076;8.198;2023-04-24T05:59:51;98472.03;;;16.30;62.70
75157;BME280;63736;50.076;8.198;2023-04-24T06:02:16;98480.47;;;17.20;58.35
75157;BME280;63736;50.076;8.198;2023-04-24T06:04:42;98473.88;;;17.64;56.53
75157;BME280;63736;50.076;8.198;2023-04-24T06:07:07;98484.03;;;17.56;55.17
75157;BME280;63736;50.076;8.198;2023-04-24T06:09:32;98499.75;;;17.10;54.50
75157;BME280;63736;50.076;8.198;2023-04-24T06:11:58;98496.53;;;16.78;56.39
75157;BME280;63736;50.076;8.198;2023-04-24T06:14:25;98483.84;;;17.57;53.84
75157;BME280;63736;50.076;8.198;2023-04-24T06:16:50;98490.81;;;18.55;50.30
75157;BME280;63736;50.076;8.198;2023-04-24T06:19:15;98492.09;;;19.13;48.19
75157;BME280;63736;50.076;8.198;2023-04-24T06:21:41;98500.97;;;19.60;46.39
75157;BME280;63736;50.076;8.198;2023-04-24T06:24:06;98494.56;;;19.35;45.56
75157;BME280;63736;50.076;8.198;2023-04-24T06:26:31;98499.13;;;18.54;47.44
75157;BME280;63736;50.076;8.198;2023-04-24T06:28:57;98502.13;;;17.27;49.48
75157;BME280;63736;50.076;8.198;2023-04-24T06:31:24;98502.50;;;16.09;52.25
75157;BME280;63736;50.076;8.198;2023-04-24T06:33:49;98502.72;;;15.47;56.48
75157;BME280;63736;50.076;8.198;2023-04-24T06:36:15;98504.38;;;15.03;59.23
75157;BME280;63736;50.076;8.198;2023-04-24T06:38:41;98504.47;;;15.25;60.45
75157;BME280;63736;50.076;8.198;2023-04-24T06:41:06;98501.91;;;16.93;55.60
75157;BME280;63736;50.076;8.198;2023-04-24T06:43:32;98492.41;;;17.67;52.37
75157;BME280;63736;50.076;8.198;2023-04-24T06:45:57;98498.06;;;18.35;49.53
75157;BME280;63736;50.076;8.198;2023-04-24T06:48:24;98483.63;;;18.00;48.97
75157;BME280;63736;50.076;8.198;2023-04-24T06:50:49;98503.31;;;17.17;49.95
75157;BME280;63736;50.076;8.198;2023-04-24T06:53:14;98498.91;;;16.45;52.49
75157;BME280;63736;50.076;8.198;2023-04-24T06:55:40;98501.25;;;17.20;52.09
75157;BME280;63736;50.076;8.198;2023-04-24T06:58:05;98498.53;;;17.90;49.32
75157;BME280;63736;50.076;8.198;2023-04-24T07:00:31;98493.09;;;17.83;48.59
75157;BME280;63736;50.076;8.198;2023-04-24T07:02:56;98493.97;;;17.55;48.25
75157;BME280;63736;50.076;8.198;2023-04-24T07:05:22;98498.53;;;17.90;48.61
75157;BME280;63736;50.076;8.198;2023-04-24T07:07:48;98489.13;;;18.41;47.16
75157;BME280;63736;50.076;8.198;2023-04-24T07:10:14;98494.59;;;19.14;45.88
75157;BME280;63736;50.076;8.198;2023-04-24T07:12:40;98486.75;;;19.85;43.28
75157;BME280;63736;50.076;8.198;2023-04-24T07:15:06;98487.00;;;20.86;42.80
75157;BME280;63736;50.076;8.198;2023-04-24T07:17:33;98487.31;;;21.22;40.80
75157;BME280;63736;50.076;8.198;2023-04-24T07:22:24;98486.13;;;21.92;37.95
75157;BME280;63736;50.076;8.198;2023-04-24T07:24:50;98488.59;;;22.85;37.07
75157;BME280;63736;50.076;8.198;2023-04-24T07:27:15;98491.72;;;22.27;36.75
75157;BME280;63736;50.076;8.198;2023-04-24T07:29:41;98505.44;;;21.46;37.80
75157;BME280;63736;50.076;8.198;2023-04-24T07:32:06;98499.03;;;20.33;40.05
75157;BME280;63736;50.076;8.198;2023-04-24T07:34:32;98506.19;;;20.85;39.43
75157;BME280;63736;50.076;8.198;2023-04-24T07:36:58;98506.47;;;20.38;40.25
75157;BME280;63736;50.076;8.198;2023-04-24T07:39:23;98504.88;;;20.62;39.75
75157;BME280;63736;50.076;8.198;2023-04-24T07:41:48;98496.00;;;21.05;38.76
75157;BME280;63736;50.076;8.198;2023-04-24T07:44:14;98503.69;;;21.34;38.84
75157;BME280;63736;50.076;8.198;2023-04-24T07:46:40;98500.56;;;20.22;39.68
75157;BME280;63736;50.076;8.198;2023-04-24T07:49:05;98506.50;;;19.00;41.65
75157;BME280;63736;50.076;8.198;2023-04-24T07:51:30;98509.06;;;19.67;41.58
75157;BME280;63736;50.076;8.198;2023-04-24T07:53:56;98494.56;;;20.77;39.55
75157;BME280;63736;50.076;8.198;2023-04-24T07:56:21;98488.56;;;21.82;37.52
75157;BME280;63736;50.076;8.198;2023-04-24T07:58:47;98487.66;;;22.37;36.23
75157;BME280;63736;50.076;8.198;2023-04-24T08:01:12;98493.41;;;22.28;35.37
75157;BME280;63736;50.076;8.198;2023-04-24T08:03:37;98498.03;;;22.28;35.71
75157;BME280;63736;50.076;8.198;2023-04-24T08:06:03;98490.19;;;21.45;36.93
75157;BME280;63736;50.076;8.198;2023-04-24T08:08:28;98497.38;;;20.57;38.49
75157;BME280;63736;50.076;8.198;2023-04-24T08:10:53;98491.06;;;19.27;38.42
75157;BME280;63736;50.076;8.198;2023-04-24T08:13:21;98511.09;;;18.11;40.96
75157;BME280;63736;50.076;8.198;2023-04-24T08:15:46;98512.50;;;17.23;43.20
75157;BME280;63736;50.076;8.198;2023-04-24T08:18:12;98526.72;;;16.67;44.81
75157;BME280;63736;50.076;8.198;2023-04-24T08:20:38;98524.50;;;16.12;46.87
75157;BME280;63736;50.076;8.198;2023-04-24T08:23:04;98519.16;;;15.67;48.23
75157;BME280;63736;50.076;8.198;2023-04-24T08:25:29;98527.03;;;15.24;49.06
75157;BME280;63736;50.076;8.198;2023-04-24T08:27:55;98540.06;;;14.74;51.03
75157;BME280;63736;50.076;8.198;2023-04-24T08:30:20;98536.16;;;14.53;52.89
75157;BME280;63736;50.076;8.198;2023-04-24T08:32:46;98540.16;;;14.34;54.26
75157;BME280;63736;50.076;8.198;2023-04-24T08:35:11;98551.63;;;14.20;55.42
75157;BME280;63736;50.076;8.198;2023-04-24T08:37:37;98550.38;;;14.08;56.71
75157;BME280;63736;50.076;8.198;2023-04-24T08:40:06;98551.44;;;13.98;57.31
75157;BME280;63736;50.076;8.198;2023-04-24T08:42:36;98557.00;;;13.88;58.23
75157;BME280;63736;50.076;8.198;2023-04-24T08:45:02;98569.13;;;13.76;59.22
75157;BME280;63736;50.076;8.198;2023-04-24T08:47:28;98559.25;;;13.68;61.24
75157;BME280;63736;50.076;8.198;2023-04-24T08:49:54;98562.47;;;13.55;62.70
75157;BME280;63736;50.076;8.198;2023-04-24T08:52:21;98567.81;;;13.64;63.92
75157;BME280;63736;50.076;8.198;2023-04-24T08:54:47;98562.09;;;13.75;63.99
75157;BME280;63736;50.076;8.198;2023-04-24T08:57:14;98566.41;;;13.84;63.33
75157;BME280;63736;50.076;8.198;2023-04-24T08:59:40;98565.38;;;13.94;63.48
75157;BME280;63736;50.076;8.198;2023-04-24T09:02:06;98576.09;;;13.94;63.36
75157;BME280;63736;50.076;8.198;2023-04-24T09:04:34;98581.66;;;13.92;63.37
75157;BME280;63736;50.076;8.198;2023-04-24T09:07:00;98586.41;;;13.74;63.12
75157;BME280;63736;50.076;8.198;2023-04-24T09:09:25;98583.78;;;13.57;63.77
75157;BME280;63736;50.076;8.198;2023-04-24T09:11:52;98591.13;;;13.55;64.02
75157;BME280;63736;50.076;8.198;2023-04-24T09:14:19;98587.97;;;13.43;64.28
75157;BME280;63736;50.076;8.198;2023-04-24T09:16:46;98585.47;;;13.42;65.16
75157;BME280;63736;50.076;8.198;2023-04-24T09:19:11;98584.16;;;13.37;65.21
75157;BME280;63736;50.076;8.198;2023-04-24T09:21:36;98587.97;;;13.43;65.29
75157;BME280;63736;50.076;8.198;2023-04-24T09:24:07;98592.50;;;13.51;65.51
75157;BME280;63736;50.076;8.198;2023-04-24T09:26:35;98595.16;;;13.67;64.97
75157;BME280;63736;50.076;8.198;2023-04-24T09:29:01;98592.94;;;13.79;64.99
75157;BME280;63736;50.076;8.198;2023-04-24T09:31:28;98592.63;;;13.74;64.30
75157;BME280;63736;50.076;8.198;2023-04-24T09:34:04;98596.47;;;13.71;64.07
75157;BME280;63736;50.076;8.198;2023-04-24T09:36:34;98607.41;;;13.62;63.24
75157;BME280;63736;50.076;8.198;2023-04-24T09:39:03;98603.41;;;13.49;63.10
75157;BME280;63736;50.076;8.198;2023-04-24T09:41:29;98609.78;;;13.40;63.66
75157;BME280;63736;50.076;8.198;2023-04-24T09:43:56;98612.78;;;13.29;63.49
75157;BME280;63736;50.076;8.198;2023-04-24T09:46:29;98606.75;;;13.18;63.91
75157;BME280;63736;50.076;8.198;2023-04-24T09:48:55;98610.28;;;13.11;65.84
75157;BME280;63736;50.076;8.198;2023-04-24T09:51:34;98625.19;;;13.05;67.30
75157;BME280;63736;50.076;8.198;2023-04-24T09:54:01;98620.84;;;12.96;69.29
75157;BME280;63736;50.076;8.198;2023-04-24T09:56:26;98631.72;;;12.86;71.14
75157;BME280;63736;50.076;8.198;2023-04-24T09:58:52;98633.38;;;12.79;71.62
75157;BME280;63736;50.076;8.198;2023-04-24T10:01:30;98628.50;;;12.74;73.58
75157;BME280;63736;50.076;8.198;2023-04-24T10:03:55;98634.56;;;12.76;75.01
75157;BME280;63736;50.076;8.198;2023-04-24T10:06:21;98641.25;;;12.80;76.15
75157;BME280;63736;50.076;8.198;2023-04-24T10:08:47;98639.44;;;12.89;76.54
75157;BME280;63736;50.076;8.198;2023-04-24T10:11:13;98645.78;;;12.88;76.45
75157;BME280;63736;50.076;8.198;2023-04-24T10:13:39;98651.97;;;12.80;77.28
75157;BME280;63736;50.076;8.198;2023-04-24T10:16:06;98667.19;;;12.71;77.43
75157;BME280;63736;50.076;8.198;2023-04-24T10:18:32;98666.50;;;12.61;77.59
75157;BME280;63736;50.076;8.198;2023-04-24T10:20:59;98666.31;;;12.54;77.84
75157;BME280;63736;50.076;8.198;2023-04-24T10:23:25;98673.00;;;12.50;79.28
75157;BME280;63736;50.076;8.198;2023-04-24T10:25:50;98673.88;;;12.59;78.03
75157;BME280;63736;50.076;8.198;2023-04-24T10:28:16;98664.38;;;12.89;77.96
75157;BME280;63736;50.076;8.198;2023-04-24T10:30:43;98670.31;;;13.51;75.64
75157;BME280;63736;50.076;8.198;2023-04-24T10:33:08;98673.53;;;14.11;71.03
75157;BME280;63736;50.076;8.198;2023-04-24T10:35:36;98669.34;;;14.64;67.56
75157;BME280;63736;50.076;8.198;2023-04-24T10:38:08;98656.59;;;15.13;63.86
75157;BME280;63736;50.076;8.198;2023-04-24T10:40:35;98656.97;;;15.63;61.55
75157;BME280;63736;50.076;8.198;2023-04-24T10:43:05;98651.88;;;16.06;58.77
75157;BME280;63736;50.076;8.198;2023-04-24T10:45:33;98661.16;;;16.33;57.61
75157;BME280;63736;50.076;8.198;2023-04-24T10:48:01;98668.00;;;16.51;56.82
75157;BME280;63736;50.076;8.198;2023-04-24T10:50:28;98652.75;;;16.58;54.05
75157;BME280;63736;50.076;8.198;2023-04-24T10:53:05;98672.16;;;16.54;53.91
75157;BME280;63736;50.076;8.198;2023-04-24T10:55:40;98675.25;;;16.35;53.42
75157;BME280;63736;50.076;8.198;2023-04-24T10:58:06;98669.25;;;16.04;54.16
75157;BME280;63736;50.076;8.198;2023-04-24T11:00:31;98672.09;;;15.87;55.29
75157;BME280;63736;50.076;8.198;2023-04-24T11:02:57;98677.41;;;15.95;56.07
75157;BME280;63736;50.076;8.198;2023-04-24T11:05:24;98680.56;;;16.14;56.15
75157;BME280;63736;50.076;8.198;2023-04-24T11:08:58;98684.28;;;16.43;55.95
75157;BME280;63736;50.076;8.198;2023-04-24T11:18:51;98665.53;;;17.29;50.00
75157;BME280;63736;50.076;8.198;2023-04-24T11:21:19;98661.03;;;17.15;50.13
75157;BME280;63736;50.076;8.198;2023-04-24T11:23:45;98667.13;;;17.02;51.03
75157;BME280;63736;50.076;8.198;2023-04-24T11:26:21;98667.38;;;16.85;50.65
75157;BME280;63736;50.076;8.198;2023-04-24T11:28:49;98675.88;;;16.52;50.71
75157;BME280;63736;50.076;8.198;2023-04-24T11:31:34;98694.78;;;16.08;53.80
75157;BME280;63736;50.076;8.198;2023-04-24T11:34:08;98726.94;;;15.48;59.60
75157;BME280;63736;50.076;8.198;2023-04-24T11:36:34;98732.31;;;14.53;70.14
75157;BME280;63736;50.076;8.198;2023-04-24T11:39:00;98743.09;;;13.64;78.31
75157;BME280;63736;50.076;8.198;2023-04-24T11:41:26;98741.59;;;12.86;86.31
75157;BME280;63736;50.076;8.198;2023-04-24T11:43:53;98735.38;;;12.34;91.14
75157;BME280;63736;50.076;8.198;2023-04-24T11:46:20;98736.03;;;12.02;95.58
75157;BME280;63736;50.076;8.198;2023-04-24T11:48:46;98743.28;;;11.92;98.95
75157;BME280;63736;50.076;8.198;2023-04-24T11:51:12;98757.66;;;11.90;100.00
75157;BME280;63736;50.076;8.198;2023-04-24T11:53:37;98739.38;;;11.86;100.00
75157;BME280;63736;50.076;8.198;2023-04-24T11:56:03;98746.38;;;11.79;100.00
75157;BME280;63736;50.076;8.198;2023-04-24T11:58:34;98740.88;;;11.80;100.00
75157;BME280;63736;50.076;8.198;2023-04-24T12:01:00;98751.78;;;11.87;100.00
75157;BME280;63736;50.076;8.198;2023-04-24T12:03:26;98742.31;;;12.19;100.00
75157;BME280;63736;50.076;8.198;2023-04-24T12:05:52;98738.81;;;12.53;100.00
75157;BME280;63736;50.076;8.198;2023-04-24T12:08:27;98735.59;;;12.92;100.00
75157;BME280;63736;50.076;8.198;2023-04-24T12:10:53;98729.97;;;13.28;98.95
75157;BME280;63736;50.076;8.198;2023-04-24T12:13:19;98736.03;;;13.71;97.00
75157;BME280;63736;50.076;8.198;2023-04-24T12:15:44;98732.31;;;13.97;91.01
75157;BME280;63736;50.076;8.198;2023-04-24T12:18:11;98731.94;;;14.17;88.92
75157;BME280;63736;50.076;8.198;2023-04-24T12:20:37;98741.34;;;14.21;86.08
75157;BME280;63736;50.076;8.198;2023-04-24T12:23:03;98730.72;;;14.36;85.97
75157;BME280;63736;50.076;8.198;2023-04-24T12:25:29;98748.44;;;14.53;85.49
75157;BME280;63736;50.076;8.198;2023-04-24T12:30:32;98749.97;;;14.64;76.18
75157;BME280;63736;50.076;8.198;2023-04-24T12:32:58;98753.63;;;14.63;71.53
75157;BME280;63736;50.076;8.198;2023-04-24T12:35:27;98759.34;;;14.60;70.38
75157;BME280;63736;50.076;8.198;2023-04-24T12:37:53;98747.63;;;14.53;67.10
75157;BME280;63736;50.076;8.198;2023-04-24T12:40:19;98754.53;;;14.39;67.24
75157;BME280;63736;50.076;8.198;2023-04-24T12:42:47;98751.13;;;14.70;69.17
75157;BME280;63736;50.076;8.198;2023-04-24T12:45:13;98744.44;;;14.97;67.67
75157;BME280;63736;50.076;8.198;2023-04-24T12:47:39;98741.34;;;15.09;66.91
75157;BME280;63736;50.076;8.198;2023-04-24T12:50:09;98744.59;;;15.27;65.84
75157;BME280;63736;50.076;8.198;2023-04-24T12:52:35;98746.72;;;15.32;63.37
75157;BME280;63736;50.076;8.198;2023-04-24T12:55:00;98751.03;;;15.18;63.53
75157;BME280;63736;50.076;8.198;2023-04-24T12:57:28;98751.31;;;15.00;63.68
75157;BME280;63736;50.076;8.198;2023-04-24T12:59:54;98764.69;;;14.77;64.69
75157;BME280;63736;50.076;8.198;2023-04-24T13:02:20;98748.78;;;14.59;65.66
75157;BME280;63736;50.076;8.198;2023-04-24T13:04:47;98755.16;;;14.58;66.15